TimeCDT,TemperatureF,Dew PointF,Humidity,Sea Level PressureIn,VisibilityMPH,Wind Direction,Wind SpeedMPH,Gust SpeedMPH,PrecipitationIn,Events,Conditions,WindDirDegrees,DateUTC
12:52 AM,68.0,60.1,76,29.92,10.0,NNW,6.9,-,N/A,,Clear,330,2013-09-02 05:52:00
1:52 AM,66.9,60.1,79,29.92,10.0,NW,6.9,-,N/A,,Clear,320,2013-09-02 06:52:00
2:52 AM,64.9,59.0,81,29.92,10.0,NNW,9.2,-,N/A,,Clear,330,2013-09-02 07:52:00
3:52 AM,64.0,59.0,84,29.93,10.0,NNW,10.4,-,N/A,,Clear,330,2013-09-02 08:52:00
4:52 AM,63.0,57.9,84,29.94,10.0,NNW,10.4,-,N/A,,Clear,330,2013-09-02 09:52:00
5:52 AM,62.1,57.9,86,29.96,10.0,NW,10.4,-,N/A,,Clear,320,2013-09-02 10:52:00
6:52 AM,61.0,57.9,90,29.99,10.0,NW,10.4,-,N/A,,Clear,320,2013-09-02 11:52:00
7:52 AM,63.0,57.9,84,29.99,10.0,NNW,8.1,-,N/A,,Clear,330,2013-09-02 12:52:00
8:52 AM,68.0,57.0,68,30.01,10.0,North,10.4,-,N/A,,Clear,10,2013-09-02 13:52:00
9:52 AM,71.1,54.0,55,30.02,10.0,North,11.5,-,N/A,,Clear,350,2013-09-02 14:52:00
10:52 AM,71.1,54.0,55,30.02,10.0,North,9.2,-,N/A,,Partly Cloudy,350,2013-09-02 15:52:00
11:52 AM,73.9,52.0,46,30.02,10.0,North,11.5,-,N/A,,Clear,360,2013-09-02 16:52:00
12:52 PM,73.9,53.1,48,30.01,10.0,NNW,10.4,18.4,N/A,,Clear,340,2013-09-02 17:52:00
1:52 PM,75.0,52.0,44,30.01,10.0,North,6.9,-,N/A,,Clear,10,2013-09-02 18:52:00
2:52 PM,77.0,53.1,43,30.00,10.0,North,10.4,-,N/A,,Clear,350,2013-09-02 19:52:00
3:52 PM,77.0,52.0,42,29.99,10.0,North,10.4,-,N/A,,Clear,350,2013-09-02 20:52:00
4:52 PM,75.9,53.1,45,29.98,10.0,NNE,8.1,-,N/A,,Clear,30,2013-09-02 21:52:00
5:52 PM,75.9,53.1,45,29.99,10.0,North,10.4,-,N/A,,Clear,10,2013-09-02 22:52:00
6:52 PM,73.0,54.0,51,29.99,10.0,North,10.4,-,N/A,,Clear,10,2013-09-02 23:52:00
7:52 PM,69.1,53.1,57,30.00,10.0,North,8.1,-,N/A,,Clear,360,2013-09-03 00:52:00
8:52 PM,66.0,55.0,68,30.01,10.0,North,11.5,-,N/A,,Clear,10,2013-09-03 01:52:00
9:52 PM,62.1,54.0,75,30.04,10.0,North,9.2,-,N/A,,Clear,10,2013-09-03 02:52:00
10:52 PM,60.1,53.1,78,30.04,10.0,NNE,8.1,-,N/A,,Clear,30,2013-09-03 03:52:00
11:52 PM,59.0,53.1,81,30.04,10.0,North,4.6,-,N/A,,Clear,10,2013-09-03 04:52:00